METAR Data
IDs: Format: Raw Decoded Include TAF

Data at: 0911 UTC 18 Jan 2019

PABL 180856Z AUTO 16006KT 5SM -SN BR OVC016 M08/M11 A2991 RMK AO2 SNB14 SLP130 P0000 60000 T10831106 53008 FZRANO
PABL 180756Z AUTO 14008KT 10SM OVC027 M08/M11 A2990 RMK AO2 SNB0657E07B24E46 SLP126 P0000 T10831111 410831133 FZRANO
PABL 180651Z AUTO 17008KT 10SM OVC029 M08/M12 A2988 RMK AO2 FZRANO
PABL 180556Z AUTO 19007KT 10SM FEW031 OVC065 M08/M12 A2987 RMK AO2 SLP118 T10831117 11083 21094 53004 FZRANO
PABL 180456Z AUTO 17006KT 10SM OVC070 M08/M12 A2986 RMK AO2 SLP114 T10831117 FZRANO
PABL 180356Z AUTO 15008KT 10SM OVC080 M09/M12 A2986 RMK AO2 SLP113 T10891117 FZRANO
PABL 180256Z AUTO 19005KT 10SM OVC090 M09/M13 A2986 RMK AO2 SLP113 T10941128 53005 FZRANO
PABL 180156Z AUTO 17008KT 10SM SCT100 M09/M13 A2985 RMK AO2 SLP109 T10941128 FZRANO
PABL 180056Z AUTO 17007KT 10SM OVC090 M09/M13 A2984 RMK AO2 SLP106 T10891128 FZRANO
PABL 172356Z AUTO 16010KT 10SM OVC085 M09/M12 A2984 RMK AO2 SLP108 T10891122 11083 21100 51004 FZRANO
PABL 172256Z AUTO 17009KT 10SM OVC080 M09/M13 A2984 RMK AO2 SLP107 T10891128 FZRANO
PABL 172156Z AUTO 16009KT 10SM OVC075 M09/M13 A2984 RMK AO2 SLP107 T10941128 FZRANO
PABL 172056Z AUTO 18011KT 10SM OVC070 M09/M13 A2983 RMK AO2 SLP104 T10941133 53004 FZRANO
PABL 171956Z AUTO 15009KT 10SM SCT070 BKN100 M09/M13 A2982 RMK AO2 SLP101 T10941133 FZRANO
PABL 171856Z AUTO 15012KT 10SM OVC085 M09/M13 A2982 RMK AO2 SLP100 T10941133 FZRANO
PABL 171756Z AUTO 16013KT 10SM OVC080 M09/M13 A2982 RMK AO2 SLP101 T10941133 11089 21133 55001 FZRANO
PABL 171656Z AUTO 12016G19KT 10SM OVC080 M09/M13 A2982 RMK AO2 SLP100 T10891128 FZRANO
PABL 171556Z AUTO 15012G20KT 10SM FEW075 M11/M14 A2982 RMK AO2 SLP100 T11061144 FZRANO
PABL 171456Z AUTO 16010KT 10SM CLR M13/M17 A2982 RMK AO2 SLP102 T11331167 56000 FZRANO
PABL 171356Z AUTO 16012KT 10SM CLR M11/M16 A2983 RMK AO2 SLP102 T11111156 FZRANO
PABL 171256Z AUTO 17013G18KT 10SM CLR M11/M15 A2982 RMK AO2 SLP100 T11111150 FZRANO
PABL 171156Z AUTO 16009KT 10SM CLR M12/M16 A2983 RMK AO2 SLP102 T11221156 11106 21122 53001 FZRANO
PABL 171056Z AUTO 15012KT 10SM CLR M11/M15 A2982 RMK AO2 SLP100 T11111150 FZRANO
PABL 170956Z AUTO 12013KT 10SM CLR M12/M15 A2981 RMK AO2 SLP098 T11171150 FZRANO
PABL 170856Z AUTO 11012G23KT 10SM CLR M11/M15 A2982 RMK AO2 SLP101 T11111150 53002 FZRANO
PABL 170656Z AUTO 11013KT 10SM CLR M11/M14 A2982 RMK AO2 SLP101 T11111144 FZRANO
PABL 170556Z AUTO 11011KT 10SM CLR M12/M15 A2982 RMK AO2 PK WND 12026/0511 SLP099 T11171150 11100 21122 58006 FZRANO
PABL 170456Z AUTO 13013KT 10SM CLR M11/M15 A2982 RMK AO2 SLP100 T11111150 FZRANO
PABL 170356Z AUTO 17008KT 10SM CLR M11/M15 A2984 RMK AO2 SLP105 T11111150 FZRANO
PABL 170256Z AUTO 14014KT 10SM CLR M11/M15 A2983 RMK AO2 SLP105 T11111150 58005 FZRANO
PABL 170156Z AUTO 14013KT 10SM CLR M11/M14 A2984 RMK AO2 SLP108 T11061144 FZRANO
PABL 170056Z AUTO 12015KT 10SM CLR M11/M14 A2985 RMK AO2 SLP111 T11061144 FZRANO
PABL 162356Z AUTO 16011KT 10SM CLR M10/M14 A2985 RMK AO2 SLP111 T11001139 11094 21156 58011 FZRANO
PABL 162256Z AUTO 13008KT 10SM CLR M11/M14 A2987 RMK AO2 SLP117 T11061144 FZRANO
PABL 162156Z AUTO 14007KT 10SM CLR M12/M15 A2988 RMK AO2 SLP119 T11171150 FZRANO